Oakfield, Tennessee
Current Conditions -  °F | °C
As of 4:53 AM on Wednesday 26 Nov 2014 (Local Time) from KMKL Reporting Station
Clear Clear  
Wind Chill: 17°   Ceiling: Unl
Heat Index: 23°   Visibility: 10mi
Dew Point: 20°   Wind: 5mph
Humidity: 88%   Direction: 200°SSW
Pressure: 30.14"   Gusts: NA
Location:  35.72°N, 88.8°W
Report Text: KMKL 261053Z AUTO 20004KT 10SM CLR M05/M07 A3014 RMK AO2 SLP211 T10501067
Loading
Personal Weather Stations






























Interactive Weather Map New forecast layout! Learn more

10-Day Weather Forecast

Advertisements
Track Severe Weather on mobile